TimeEST,TemperatureF,Dew PointF,Humidity,Sea Level PressureIn,VisibilityMPH,Wind Direction,Wind SpeedMPH,Gust SpeedMPH,PrecipitationIn,Events,Conditions,WindDirDegrees,DateUTC
12:11 AM,1.4,-2.2,85,29.88,10.0,Calm,Calm,-,N/A,,Overcast,0,2013-01-04 05:11:00
12:54 AM,3.0,-2.0,80,29.92,10.0,Calm,Calm,-,N/A,,Overcast,0,2013-01-04 05:54:00
1:54 AM,5.0,-0.0,80,29.91,8.0,Calm,Calm,-,N/A,,Overcast,0,2013-01-04 06:54:00
2:15 AM,6.8,-0.4,72,29.86,2.5,Calm,Calm,-,0.00,Snow,Light Snow,0,2013-01-04 07:15:00
2:35 AM,6.8,1.4,79,29.86,3.0,Calm,Calm,-,0.00,Snow,Light Snow,0,2013-01-04 07:35:00
2:54 AM,7.0,1.0,77,29.91,9.0,Calm,Calm,-,0.00,,Overcast,0,2013-01-04 07:54:00
4:54 AM,9.0,5.0,84,29.89,8.0,Calm,Calm,-,N/A,,Overcast,0,2013-01-04 09:54:00
5:54 AM,10.0,6.1,84,29.89,6.0,Calm,Calm,-,N/A,,Overcast,0,2013-01-04 10:54:00
6:54 AM,12.0,7.0,80,29.87,6.0,South,4.6,-,0.00,Snow,Light Snow,180,2013-01-04 11:54:00
8:54 AM,19.0,15.1,85,29.83,9.0,Calm,Calm,-,N/A,,Overcast,0,2013-01-04 13:54:00
9:54 AM,28.9,21.0,72,29.80,4.0,South,10.4,16.1,0.00,Snow,Light Snow,190,2013-01-04 14:54:00
10:03 AM,30.2,21.2,69,29.74,2.5,South,13.8,21.9,0.00,Snow,Light Snow,190,2013-01-04 15:03:00
10:13 AM,30.2,21.2,69,29.74,3.0,South,10.4,19.6,0.00,Snow,Light Snow,190,2013-01-04 15:13:00
10:54 AM,30.9,21.0,67,29.78,10.0,SSW,9.2,-,0.00,,Overcast,200,2013-01-04 15:54:00
11:54 AM,30.9,19.9,64,29.77,10.0,SW,9.2,-,N/A,,Overcast,230,2013-01-04 16:54:00
12:40 PM,30.2,21.2,69,29.71,5.0,South,8.1,-,0.00,Snow,Light Snow,190,2013-01-04 17:40:00
12:54 PM,30.9,21.9,69,29.75,1.8,SSW,9.2,17.3,0.00,Snow,Light Snow,210,2013-01-04 17:54:00
1:04 PM,30.2,23.0,75,29.70,0.8,SSW,9.2,-,0.00,Snow,Light Snow,200,2013-01-04 18:04:00
1:22 PM,30.2,24.8,80,29.70,0.5,Variable,3.5,-,0.00,Snow,Snow,0,2013-01-04 18:22:00
1:54 PM,28.9,25.0,85,29.75,0.2,South,4.6,-,0.02,Fog-Snow,Heavy Snow,170,2013-01-04 18:54:00
2:46 PM,28.4,26.6,93,29.71,0.2,South,8.1,-,0.04,Fog-Snow,Snow,180,2013-01-04 19:46:00
2:54 PM,28.9,26.1,89,29.75,0.2,South,6.9,-,0.04,Fog-Snow,Snow,180,2013-01-04 19:54:00
3:25 PM,28.4,26.6,93,29.71,0.8,South,4.6,-,0.01,Snow,Light Snow,180,2013-01-04 20:25:00
3:31 PM,28.4,26.6,93,29.71,1.0,SSE,6.9,-,0.01,Snow,Light Snow,160,2013-01-04 20:31:00
3:41 PM,28.4,26.6,93,29.72,1.8,Variable,3.5,-,0.01,Snow,Light Snow,0,2013-01-04 20:41:00
3:54 PM,28.9,26.1,89,29.76,2.5,Calm,Calm,-,0.01,Snow,Light Snow,0,2013-01-04 20:54:00
4:30 PM,30.2,24.8,80,29.72,4.0,Variable,3.5,-,0.00,Snow,Light Snow,0,2013-01-04 21:30:00
4:54 PM,30.9,25.0,79,29.76,6.0,South,4.6,-,0.01,Snow,Light Snow,170,2013-01-04 21:54:00
5:54 PM,30.9,24.1,76,29.76,10.0,SSW,6.9,-,0.00,,Overcast,200,2013-01-04 22:54:00
6:17 PM,30.2,24.8,80,29.73,3.0,South,8.1,-,0.00,Snow,Light Snow,190,2013-01-04 23:17:00
6:28 PM,30.2,24.8,80,29.73,2.5,Variable,4.6,-,0.00,Snow,Light Snow,0,2013-01-04 23:28:00
6:30 PM,30.2,24.8,80,29.73,3.0,SW,6.9,-,0.00,Snow,Light Snow,230,2013-01-04 23:30:00
6:54 PM,32.0,23.0,69,29.78,8.0,Calm,Calm,-,0.00,Snow,Light Snow,0,2013-01-04 23:54:00
7:54 PM,30.9,23.0,72,29.78,6.0,Variable,5.8,-,0.00,Snow,Light Snow,0,2013-01-05 00:54:00
8:54 PM,32.0,23.0,69,29.78,8.0,Variable,6.9,-,0.00,Snow,Light Snow,0,2013-01-05 01:54:00
9:54 PM,30.9,21.9,69,29.77,7.0,Variable,6.9,16.1,0.00,Snow,Light Snow,0,2013-01-05 02:54:00
10:54 PM,30.9,21.9,69,29.78,6.0,SW,10.4,21.9,0.00,Snow,Light Snow,230,2013-01-05 03:54:00
11:54 PM,30.9,21.0,67,29.77,9.0,SSW,12.7,19.6,0.00,Snow,Light Snow,210,2013-01-05 04:54:00